Time;durP1;ratioP1;P1;durP2;ratioP2;P2;SDS_P1;SDS_P2;PMS_P1;PMS_P2;Temp;Humidity;BMP_temperature;BMP_pressure;BME280_temperature;BME280_humidity;BME280_pressure;Samples;Min_cycle;Max_cycle;Signal;HPM_P1;HPM_P2
2023/07/22 00:02:22;;;;;;;2.83;2.17;;;15.80;1.00;;;;;;7392249;19;20038;-68
2023/07/22 00:04:53;;;;;;;4.60;2.53;;;15.70;1.00;;;;;;7391087;19;20031;-68
2023/07/22 00:07:25;;;;;;;3.30;2.15;;;15.70;1.00;;;;;;7392083;19;20042;-68
2023/07/22 00:09:56;;;;;;;3.45;2.47;;;15.80;1.00;;;;;;7391499;19;20050;-69
2023/07/22 00:12:26;;;;;;;3.25;2.60;;;15.80;1.00;;;;;;7392305;19;20011;-69
2023/07/22 00:14:56;;;;;;;3.35;2.15;;;15.90;1.00;;;;;;7391104;19;20014;-69
2023/07/22 00:17:26;;;;;;;3.65;2.70;;;15.90;1.00;;;;;;7392165;19;20521;-68
2023/07/22 00:19:56;;;;;;;3.38;2.55;;;15.90;1.00;;;;;;7391544;19;20435;-68
2023/07/22 00:22:29;;;;;;;2.90;2.38;;;16.00;1.00;;;;;;7390597;19;20034;-69
2023/07/22 00:25:00;;;;;;;5.03;2.50;;;15.90;1.00;;;;;;7390788;19;20038;-68
2023/07/22 00:27:30;;;;;;;3.75;2.10;;;16.00;1.00;;;;;;7390174;19;20086;-68
2023/07/22 00:30:00;;;;;;;4.32;2.55;;;15.90;1.00;;;;;;7390571;19;20011;-68
2023/07/22 00:32:30;;;;;;;5.18;2.50;;;15.90;1.00;;;;;;7389906;19;20018;-68
2023/07/22 00:35:00;;;;;;;6.93;3.00;;;15.80;1.00;;;;;;7385167;19;20682;-69
2023/07/22 00:37:33;;;;;;;4.50;2.50;;;15.90;1.00;;;;;;7386752;19;20049;-68
2023/07/22 00:40:05;;;;;;;3.65;2.67;;;15.80;1.00;;;;;;7386689;19;20018;-68
2023/07/22 00:42:36;;;;;;;3.30;2.60;;;15.80;1.00;;;;;;7387681;19;20014;-69
2023/07/22 00:45:04;;;;;;;4.25;2.65;;;15.90;1.00;;;;;;7386266;19;20089;-69
2023/07/22 00:47:36;;;;;;;4.10;2.38;;;15.90;1.00;;;;;;7387283;19;20042;-69
2023/07/22 00:50:08;;;;;;;3.13;2.03;;;15.70;1.00;;;;;;7386702;19;20091;-68
2023/07/22 00:52:41;;;;;;;5.35;2.55;;;15.70;1.00;;;;;;7390855;19;20042;-68
2023/07/22 00:55:12;;;;;;;3.28;2.60;;;15.70;1.00;;;;;;7390155;19;20461;-69
2023/07/22 00:57:42;;;;;;;2.83;2.20;;;15.70;1.00;;;;;;7390689;19;20019;-69
2023/07/22 01:00:15;;;;;;;3.85;2.50;;;15.70;1.00;;;;;;7390085;19;20018;-67
2023/07/22 01:02:46;;;;;;;3.22;2.47;;;15.60;1.00;;;;;;7390907;19;20082;-67
2023/07/22 01:05:16;;;;;;;3.95;2.40;;;15.40;1.00;;;;;;7390021;19;20021;-67
2023/07/22 01:07:49;;;;;;;7.05;2.58;;;15.50;1.00;;;;;;7390817;19;20018;-67
2023/07/22 01:10:19;;;;;;;2.55;2.15;;;15.50;1.00;;;;;;7389691;19;20607;-67
2023/07/22 01:12:49;;;;;;;4.85;2.58;;;15.40;1.00;;;;;;7390829;19;20032;-68
2023/07/22 01:15:19;;;;;;;5.13;2.33;;;15.40;1.00;;;;;;7389258;19;20026;-67
2023/07/22 01:17:50;;;;;;;5.07;2.00;;;15.30;1.00;;;;;;7390105;19;20014;-67
2023/07/22 01:20:21;;;;;;;4.07;2.20;;;15.30;1.00;;;;;;7389537;19;20036;-67
2023/07/22 01:22:56;;;;;;;2.63;2.30;;;15.40;1.00;;;;;;7390212;19;20022;-67
2023/07/22 01:25:26;;;;;;;;;;;15.30;1.00;;;;;;7390366;19;20041;-68
2023/07/22 01:27:59;;;;;;;2.90;2.30;;;15.20;1.00;;;;;;7387479;19;19919;-68
2023/07/22 01:30:29;;;;;;;3.45;2.50;;;15.20;1.00;;;;;;7388937;19;20023;-67
2023/07/22 01:32:59;;;;;;;4.30;2.53;;;15.20;1.00;;;;;;7389940;19;20019;-68
2023/07/22 01:35:29;;;;;;;3.25;2.55;;;15.20;1.00;;;;;;7389172;19;20039;-69
2023/07/22 01:38:02;;;;;;;3.95;2.40;;;15.10;1.00;;;;;;7390081;19;20038;-68
2023/07/22 01:40:32;;;;;;;3.22;2.58;;;15.10;1.00;;;;;;7396147;19;20018;-69
2023/07/22 01:43:02;;;;;;;3.67;2.72;;;15.20;1.00;;;;;;7397497;19;20018;-67
2023/07/22 01:45:32;;;;;;;5.18;2.60;;;15.20;1.00;;;;;;7394793;19;20015;-68
2023/07/22 01:48:02;;;;;;;4.13;2.90;;;15.10;1.00;;;;;;7393064;19;20024;-68
2023/07/22 01:50:32;;;;;;;4.18;2.80;;;15.30;1.00;;;;;;7393750;19;20078;-69
2023/07/22 01:53:05;;;;;;;4.47;2.67;;;15.30;1.00;;;;;;7397376;19;20022;-69
2023/07/22 01:55:35;;;;;;;3.60;2.87;;;15.30;1.00;;;;;;7396551;19;20034;-69
2023/07/22 01:58:05;;;;;;;4.00;2.80;;;15.20;1.00;;;;;;7396664;19;20014;-68
2023/07/22 02:00:35;;;;;;;3.30;2.60;;;15.20;1.00;;;;;;7395104;19;20022;-69
2023/07/22 02:03:06;;;;;;;3.50;2.80;;;15.30;1.00;;;;;;7396112;19;20036;-68
2023/07/22 02:05:36;;;;;;;4.55;3.00;;;15.20;1.00;;;;;;7395414;19;20021;-69
2023/07/22 02:08:10;;;;;;;8.13;3.25;;;15.00;1.00;;;;;;7394125;19;20031;-69
2023/07/22 02:10:40;;;;;;;4.22;3.00;;;15.00;1.00;;;;;;7394632;19;20027;-69
2023/07/22 02:13:10;;;;;;;5.85;2.88;;;14.90;1.00;;;;;;7396413;19;20027;-68
2023/07/22 02:15:39;;;;;;;3.83;3.10;;;15.00;1.00;;;;;;7394924;19;20018;-69
2023/07/22 02:18:09;;;;;;;4.05;3.35;;;14.80;1.00;;;;;;7396425;19;20341;-69
2023/07/22 02:20:39;;;;;;;7.28;3.70;;;14.70;1.00;;;;;;7394086;19;20022;-68
2023/07/22 02:23:12;;;;;;;5.50;3.28;;;14.70;1.00;;;;;;7395658;19;20014;-68
2023/07/22 02:25:42;;;;;;;5.00;3.40;;;14.60;1.00;;;;;;7394895;19;20015;-69
2023/07/22 02:28:12;;;;;;;6.57;3.88;;;14.70;1.00;;;;;;7393535;19;20015;-67
2023/07/22 02:30:42;;;;;;;7.80;3.83;;;14.80;1.00;;;;;;7394230;19;20022;-68
2023/07/22 02:33:12;;;;;;;5.10;3.78;;;14.80;1.00;;;;;;7396183;19;20328;-69
2023/07/22 02:35:43;;;;;;;7.38;4.10;;;14.80;1.00;;;;;;7393656;19;20018;-68
2023/07/22 02:38:16;;;;;;;6.97;4.70;;;14.70;1.00;;;;;;7394099;19;20019;-68
2023/07/22 02:40:46;;;;;;;5.28;3.63;;;14.70;1.00;;;;;;7393724;19;20415;-68
2023/07/22 02:43:16;;;;;;;6.60;3.42;;;14.90;1.00;;;;;;7394271;19;20378;-69
2023/07/22 02:45:46;;;;;;;4.57;3.38;;;14.80;1.00;;;;;;7396177;19;20021;-69
2023/07/22 02:48:16;;;;;;;5.50;3.40;;;14.70;1.00;;;;;;7393860;19;20011;-68
2023/07/22 02:50:46;;;;;;;4.13;3.35;;;14.50;1.00;;;;;;7392371;19;20048;-69
2023/07/22 02:53:19;;;;;;;4.85;3.60;;;14.60;1.00;;;;;;7395126;19;20018;-69
2023/07/22 02:55:50;;;;;;;6.68;3.88;;;14.60;1.00;;;;;;7394953;19;20081;-69
2023/07/22 02:58:20;;;;;;;5.07;3.70;;;14.60;1.00;;;;;;7394193;19;20018;-69
2023/07/22 03:00:50;;;;;;;4.40;4.00;;;14.60;1.00;;;;;;7393714;19;20014;-69
2023/07/22 03:03:20;;;;;;;6.47;4.13;;;14.50;1.00;;;;;;7396861;19;20014;-68
2023/07/22 03:05:50;;;;;;;6.57;4.90;;;14.50;1.00;;;;;;7394807;19;20923;-69
2023/07/22 03:08:22;;;;;;;6.53;4.80;;;14.40;1.00;;;;;;7393445;19;20143;-69
2023/07/22 03:10:52;;;;;;;6.30;4.20;;;14.50;1.00;;;;;;7393003;19;20014;-69
2023/07/22 03:13:22;;;;;;;5.95;4.20;;;14.50;1.00;;;;;;7393032;19;20074;-68
2023/07/22 03:15:52;;;;;;;6.57;3.70;;;14.60;1.00;;;;;;7393974;19;20111;-69
2023/07/22 03:18:22;;;;;;;5.93;4.28;;;14.60;1.00;;;;;;7394254;19;20018;-68
2023/07/22 03:20:52;;;;;;;6.78;3.70;;;14.60;1.00;;;;;;7393311;19;20015;-67
2023/07/22 03:23:24;;;;;;;6.72;4.00;;;14.60;1.00;;;;;;7393661;19;20489;-67
2023/07/22 03:25:54;;;;;;;6.75;4.13;;;14.60;1.00;;;;;;7394183;19;20010;-68
2023/07/22 03:28:25;;;;;;;5.18;4.00;;;14.50;1.00;;;;;;7392727;19;20006;-68
2023/07/22 03:30:55;;;;;;;5.47;4.45;;;14.40;1.00;;;;;;7393111;19;20370;-68
2023/07/22 03:33:25;;;;;;;8.02;4.63;;;14.40;1.00;;;;;;7392243;19;20018;-68
2023/07/22 03:35:55;;;;;;;7.13;4.57;;;14.40;1.00;;;;;;7393470;19;20010;-68
2023/07/22 03:38:28;;;;;;;9.10;4.47;;;14.40;1.00;;;;;;7393902;19;20019;-68
2023/07/22 03:40:58;;;;;;;6.93;5.10;;;14.40;1.00;;;;;;7392433;19;20754;-69
2023/07/22 03:43:27;;;;;;;6.28;4.43;;;14.40;1.00;;;;;;7393499;19;20010;-69
2023/07/22 03:45:57;;;;;;;6.93;4.97;;;14.50;1.00;;;;;;7393680;19;20014;-68
2023/07/22 03:48:27;;;;;;;6.50;4.55;;;14.50;1.00;;;;;;7392122;19;20439;-68
2023/07/22 03:50:57;;;;;;;6.22;4.57;;;14.30;1.00;;;;;;7392650;19;20539;-68
2023/07/22 03:53:48;;;;;;;5.82;4.22;;;14.30;1.00;;;;;;7392800;19;20562;-68
2023/07/22 03:56:18;;;;;;;7.07;4.90;;;14.50;1.00;;;;;;7393062;19;20014;-68
2023/07/22 03:58:48;;;;;;;8.10;4.85;;;14.60;1.00;;;;;;7392954;19;20041;-67
2023/07/22 04:01:22;;;;;;;7.25;4.38;;;14.60;1.00;;;;;;7391170;19;20042;-67
2023/07/22 04:03:52;;;;;;;7.80;4.95;;;14.70;1.00;;;;;;7390828;19;20373;-68
2023/07/22 04:06:22;;;;;;;7.97;5.07;;;14.80;1.00;;;;;;7392337;19;20010;-68
2023/07/22 04:08:54;;;;;;;8.75;5.10;;;14.80;1.00;;;;;;7392292;19;20014;-68
2023/07/22 04:11:24;;;;;;;8.20;5.05;;;15.10;1.00;;;;;;7390945;19;20042;-68
2023/07/22 04:13:54;;;;;;;7.32;4.20;;;15.20;1.00;;;;;;7393078;19;20059;-68
2023/07/22 04:16:25;;;;;;;8.32;4.90;;;15.50;1.00;;;;;;7392126;19;20107;-68
2023/07/22 04:18:55;;;;;;;6.03;4.95;;;15.40;1.00;;;;;;7392492;19;20023;-68
2023/07/22 04:21:25;;;;;;;5.57;4.25;;;15.60;1.00;;;;;;7389518;19;20538;-68
2023/07/22 04:23:58;;;;;;;5.45;4.50;;;16.20;1.00;;;;;;7392393;19;20022;-68
2023/07/22 04:26:28;;;;;;;6.75;4.32;;;16.30;1.00;;;;;;7390596;19;20018;-68
2023/07/22 04:28:59;;;;;;;7.47;4.65;;;16.20;1.00;;;;;;7391461;19;20015;-68
2023/07/22 04:31:29;;;;;;;5.32;4.07;;;16.50;1.00;;;;;;7388978;19;20486;-69
2023/07/22 04:34:00;;;;;;;6.70;4.13;;;16.50;1.00;;;;;;7392027;19;20860;-68
2023/07/22 04:36:30;;;;;;;6.30;4.82;;;16.60;1.00;;;;;;7391615;19;20018;-69
2023/07/22 04:39:02;;;;;;;5.85;4.00;;;16.90;1.00;;;;;;7390594;19;20090;-68
2023/07/22 04:41:33;;;;;;;6.05;4.18;;;17.60;1.00;;;;;;7390084;19;20015;-68
2023/07/22 04:44:03;;;;;;;6.57;4.00;;;17.40;1.00;;;;;;7391480;19;20022;-68
2023/07/22 04:46:33;;;;;;;6.70;4.32;;;17.40;1.00;;;;;;7390433;19;20027;-68
2023/07/22 04:49:03;;;;;;;7.30;3.88;;;17.10;1.00;;;;;;7390595;19;20018;-69
2023/07/22 04:51:33;;;;;;;5.82;3.65;;;17.40;1.00;;;;;;7389870;19;20018;-69
2023/07/22 04:54:06;;;;;;;7.60;3.80;;;17.80;1.00;;;;;;7389717;19;20008;-68
2023/07/22 04:56:36;;;;;;;5.95;3.33;;;17.80;1.00;;;;;;7391043;19;20014;-68
2023/07/22 04:59:06;;;;;;;4.40;3.30;;;17.50;1.00;;;;;;7391603;19;20014;-69
2023/07/22 05:01:37;;;;;;;6.25;3.25;;;17.40;1.00;;;;;;7389860;19;20746;-68
2023/07/22 05:04:07;;;;;;;6.03;3.42;;;18.10;1.00;;;;;;7391321;19;20018;-68
2023/07/22 05:06:37;;;;;;;5.65;3.47;;;18.80;1.00;;;;;;7390395;19;20035;-69
2023/07/22 05:09:09;;;;;;;5.22;3.20;;;18.90;1.00;;;;;;7390226;19;20018;-69
2023/07/22 05:11:39;;;;;;;5.05;3.75;;;19.00;1.00;;;;;;7388616;19;20034;-68
2023/07/22 05:14:09;;;;;;;7.60;3.58;;;19.70;1.00;;;;;;7393982;19;20014;-67
2023/07/22 05:16:39;;;;;;;6.30;3.42;;;19.80;1.00;;;;;;7396349;19;20651;-68
2023/07/22 05:19:10;;;;;;;4.38;3.42;;;20.00;1.00;;;;;;7397636;19;20372;-68
2023/07/22 05:21:41;;;;;;;6.97;3.53;;;20.50;1.00;;;;;;7396024;19;20505;-69
2023/07/22 05:24:13;;;;;;;5.18;3.15;;;20.20;1.00;;;;;;7397649;19;20077;-68
2023/07/22 05:26:43;;;;;;;5.07;3.25;;;20.40;1.00;;;;;;7398498;19;20026;-68
2023/07/22 05:29:33;;;;;;;4.70;3.25;;;20.70;1.00;;;;;;7396263;19;20355;-68
2023/07/22 05:32:03;;;;;;;4.72;2.80;;;20.60;1.00;;;;;;7397964;19;20029;-68
2023/07/22 05:34:36;;;;;;;4.80;2.85;;;20.30;1.00;;;;;;7397789;19;20025;-68
2023/07/22 05:37:07;;;;;;;5.22;3.63;;;20.10;1.00;;;;;;7397507;19;20035;-68
2023/07/22 05:39:39;;;;;;;5.60;3.42;;;20.30;1.00;;;;;;7397483;19;20352;-68
2023/07/22 05:42:09;;;;;;;4.70;3.22;;;20.40;1.00;;;;;;7398046;19;20014;-69
2023/07/22 05:44:39;;;;;;;5.57;3.40;;;21.10;1.00;;;;;;7397464;19;20011;-69
2023/07/22 05:47:09;;;;;;;5.10;3.40;;;21.30;1.00;;;;;;7396926;19;20014;-67
2023/07/22 05:49:39;;;;;;;5.95;3.58;;;21.00;1.00;;;;;;7395820;19;20344;-68
2023/07/22 05:52:10;;;;;;;5.38;3.33;;;20.60;1.00;;;;;;7397734;19;20474;-68
2023/07/22 05:54:42;;;;;;;4.05;2.75;;;20.30;1.00;;;;;;7396863;19;20038;-68
2023/07/22 05:57:12;;;;;;;4.20;3.10;;;20.50;1.00;;;;;;7397045;19;20033;-69
2023/07/22 05:59:42;;;;;;;4.65;2.70;;;21.60;1.00;;;;;;7395977;19;20018;-68
2023/07/22 06:02:14;;;;;;;3.38;2.70;;;21.30;1.00;;;;;;7397106;19;20091;-68
2023/07/22 06:04:44;;;;;;;4.38;2.55;;;21.30;1.00;;;;;;7395355;19;20156;-68
2023/07/22 06:07:14;;;;;;;3.95;2.80;;;20.10;1.00;;;;;;7396503;19;20378;-67
2023/07/22 06:09:47;;;;;;;3.72;2.58;;;19.30;1.00;;;;;;7395531;19;20108;-68
2023/07/22 06:12:17;;;;;;;3.00;2.50;;;18.90;1.00;;;;;;7396637;19;20671;-68
2023/07/22 06:14:47;;;;;;;3.33;2.08;;;19.30;1.00;;;;;;7396421;19;20018;-68
2023/07/22 06:17:18;;;;;;;3.72;2.50;;;20.30;1.00;;;;;;7396228;19;20010;-68
2023/07/22 06:19:48;;;;;;;3.95;2.30;;;21.10;1.00;;;;;;7395368;19;20035;-67
2023/07/22 06:22:18;;;;;;;3.47;2.30;;;22.40;1.00;;;;;;7396578;19;20018;-68
2023/07/22 06:24:50;;;;;;;3.35;2.28;;;23.00;1.00;;;;;;7394315;19;20037;-68
2023/07/22 06:27:20;;;;;;;4.00;2.20;;;22.30;1.00;;;;;;7395727;19;20007;-68
2023/07/22 06:29:50;;;;;;;4.57;2.42;;;22.60;1.00;;;;;;7394667;19;20011;-68
2023/07/22 06:32:20;;;;;;;4.07;2.80;;;22.00;1.00;;;;;;7395870;19;20006;-68
2023/07/22 06:34:51;;;;;;;4.15;2.47;;;22.20;1.00;;;;;;7396692;19;20022;-68
2023/07/22 06:37:20;;;;;;;4.78;2.88;;;22.10;1.00;;;;;;7397933;19;20006;-67
2023/07/22 06:39:53;;;;;;;3.03;2.55;;;22.60;1.00;;;;;;7395786;19;20007;-68
2023/07/22 06:42:23;;;;;;;3.83;2.50;;;22.10;1.00;;;;;;7395977;19;20014;-68
2023/07/22 06:44:53;;;;;;;5.53;2.85;;;22.00;1.00;;;;;;7395150;19;20027;-68
2023/07/22 06:47:23;;;;;;;3.47;2.42;;;21.80;1.00;;;;;;7394851;19;20028;-66
2023/07/22 06:49:53;;;;;;;3.80;2.70;;;21.30;1.00;;;;;;7395004;19;20018;-68
2023/07/22 06:52:23;;;;;;;4.05;2.33;;;20.70;1.00;;;;;;7395054;19;20022;-69
2023/07/22 06:54:56;;;;;;;4.30;2.58;;;20.70;1.00;;;;;;7395382;19;20038;-69
2023/07/22 06:57:26;;;;;;;3.78;2.10;;;20.90;1.00;;;;;;7394446;19;20011;-69
2023/07/22 06:59:56;;;;;;;2.88;2.13;;;20.60;1.00;;;;;;7394179;19;20010;-68
2023/07/22 07:02:26;;;;;;;3.88;2.10;;;20.70;1.00;;;;;;7395089;19;20110;-69
2023/07/22 07:04:56;;;;;;;2.75;1.85;;;20.50;1.00;;;;;;7395223;19;20021;-68
2023/07/22 07:07:26;;;;;;;4.20;1.80;;;20.50;1.00;;;;;;7394201;19;20014;-68
2023/07/22 07:09:59;;;;;;;2.40;1.80;;;20.60;1.00;;;;;;7393551;19;20010;-67
2023/07/22 07:12:29;;;;;;;4.35;2.00;;;20.80;1.00;;;;;;7392356;19;20022;-68
2023/07/22 07:14:59;;;;;;;3.60;1.90;;;20.40;1.00;;;;;;7394368;19;20478;-68
2023/07/22 07:17:29;;;;;;;3.22;2.10;;;20.60;1.00;;;;;;7394015;19;20014;-68
2023/07/22 07:19:59;;;;;;;6.45;2.67;;;21.20;1.00;;;;;;7392756;19;20549;-68
2023/07/22 07:22:29;;;;;;;3.35;1.90;;;21.30;1.00;;;;;;7393796;19;20139;-68
2023/07/22 07:25:02;;;;;;;3.97;1.98;;;21.30;1.00;;;;;;7391785;19;20037;-68
2023/07/22 07:27:32;;;;;;;3.72;1.90;;;21.30;1.00;;;;;;7393620;19;20014;-67
2023/07/22 07:30:02;;;;;;;3.75;2.20;;;21.40;1.00;;;;;;7393210;19;20019;-70
2023/07/22 07:32:32;;;;;;;3.60;2.20;;;22.40;1.00;;;;;;7393895;19;20020;-69
2023/07/22 07:35:03;;;;;;;3.60;2.15;;;22.00;1.00;;;;;;7393521;19;20014;-68
2023/07/22 07:37:35;;;;;;;3.88;2.40;;;21.90;1.00;;;;;;7392296;19;20011;-69
2023/07/22 07:40:09;;;;;;;4.85;2.10;;;21.60;1.00;;;;;;7391178;19;20433;-69
2023/07/22 07:42:39;;;;;;;3.55;2.10;;;22.00;1.00;;;;;;7393650;19;20085;-69
2023/07/22 07:45:11;;;;;;;4.03;1.88;;;22.50;1.00;;;;;;7393137;19;20091;-69
2023/07/22 07:47:40;;;;;;;4.43;1.98;;;22.60;1.00;;;;;;7393426;19;20028;-69
2023/07/22 07:50:11;;;;;;;2.67;2.00;;;22.20;1.00;;;;;;7391504;19;20041;-68
2023/07/22 07:52:41;;;;;;;3.92;1.90;;;22.60;1.00;;;;;;7394006;19;20018;-69
2023/07/22 07:55:14;;;;;;;2.90;1.92;;;22.70;1.00;;;;;;7392958;19;20015;-68
2023/07/22 07:57:44;;;;;;;2.03;1.63;;;22.80;1.00;;;;;;7391292;19;20089;-69
2023/07/22 08:00:15;;;;;;;3.70;2.00;;;22.80;1.00;;;;;;7391452;19;20018;-68
2023/07/22 08:02:45;;;;;;;2.88;1.77;;;22.80;1.00;;;;;;7392277;19;20014;-68
2023/07/22 08:05:16;;;;;;;4.03;2.03;;;22.40;1.00;;;;;;7391805;19;20018;-67
2023/07/22 08:07:46;;;;;;;2.40;1.80;;;21.40;1.00;;;;;;7391951;19;20014;-68
2023/07/22 08:10:18;;;;;;;2.38;1.88;;;21.70;1.00;;;;;;7389588;19;20018;-67
2023/07/22 08:12:48;;;;;;;4.32;1.95;;;22.20;1.00;;;;;;7391587;19;20014;-69
2023/07/22 08:15:18;;;;;;;3.65;2.15;;;21.70;1.00;;;;;;7391949;19;20026;-68
2023/07/22 08:17:48;;;;;;;4.45;1.80;;;21.80;1.00;;;;;;7392105;19;20356;-68
2023/07/22 08:20:19;;;;;;;4.88;2.40;;;22.20;1.00;;;;;;7390871;19;20014;-68
2023/07/22 08:22:49;;;;;;;2.90;2.13;;;22.30;1.00;;;;;;7391989;19;20024;-68
2023/07/22 08:25:21;;;;;;;2.78;1.80;;;22.70;1.00;;;;;;7391460;19;20070;-68
2023/07/22 08:27:51;;;;;;;3.08;2.03;;;23.20;1.00;;;;;;7392826;19;20015;-68
2023/07/22 08:30:21;;;;;;;2.38;1.80;;;23.40;1.00;;;;;;7391047;19;20014;-69
2023/07/22 08:32:51;;;;;;;3.08;2.13;;;23.20;1.00;;;;;;7392244;19;20039;-68
2023/07/22 08:35:22;;;;;;;9.35;2.13;;;23.00;1.00;;;;;;7391156;19;20015;-67
2023/07/22 08:37:53;;;;;;;3.45;2.03;;;21.60;1.00;;;;;;7391757;19;20011;-68
2023/07/22 08:40:26;;;;;;;2.20;1.83;;;22.30;1.00;;;;;;7388701;19;20010;-67
2023/07/22 08:42:56;;;;;;;3.35;2.00;;;22.30;1.00;;;;;;7390375;19;20014;-69
2023/07/22 08:45:30;;;;;;;2.90;1.83;;;22.00;1.00;;;;;;7389297;19;20022;-68
2023/07/22 08:48:01;;;;;;;2.65;2.05;;;22.70;1.00;;;;;;7388982;19;20126;-68
2023/07/22 08:50:33;;;;;;;3.75;2.05;;;22.60;1.00;;;;;;7389647;19;20025;-68
2023/07/22 08:53:05;;;;;;;2.83;1.80;;;22.10;1.00;;;;;;7389513;19;20379;-68
2023/07/22 08:55:39;;;;;;;4.18;2.10;;;22.50;1.00;;;;;;7390305;19;20485;-68
2023/07/22 08:58:11;;;;;;;3.17;1.70;;;22.30;1.00;;;;;;7390481;19;20018;-68
2023/07/22 09:00:42;;;;;;;3.78;1.80;;;22.10;1.00;;;;;;7390190;19;20018;-68
2023/07/22 09:03:14;;;;;;;11.45;1.90;;;22.30;1.00;;;;;;7388802;19;20022;-68
2023/07/22 09:05:46;;;;;;;2.10;1.58;;;22.70;1.00;;;;;;7389761;19;20010;-68
2023/07/22 09:08:20;;;;;;;3.00;1.90;;;22.40;1.00;;;;;;7390653;19;20474;-67
2023/07/22 09:10:53;;;;;;;3.00;1.95;;;21.70;1.00;;;;;;7388794;19;20031;-67
2023/07/22 09:13:25;;;;;;;2.88;1.80;;;22.40;1.00;;;;;;7390099;19;20014;-67
2023/07/22 09:15:55;;;;;;;3.30;1.77;;;22.70;1.00;;;;;;7389498;19;20108;-70
2023/07/22 09:18:25;;;;;;;3.92;1.73;;;22.90;1.00;;;;;;7390245;19;20015;-68
2023/07/22 09:20:55;;;;;;;3.33;1.85;;;23.10;1.00;;;;;;7389052;19;20018;-67
2023/07/22 09:23:35;;;;;;;2.97;1.60;;;23.50;1.00;;;;;;7389853;19;20010;-68
2023/07/22 09:26:15;;;;;;;1.92;1.45;;;23.60;1.00;;;;;;7390394;19;20010;-71
2023/07/22 09:28:55;;;;;;;2.22;1.60;;;23.90;1.00;;;;;;7390376;19;20015;-69
2023/07/22 09:31:28;;;;;;;3.88;1.60;;;23.20;1.00;;;;;;7388631;19;20014;-69
2023/07/22 09:34:12;;;;;;;3.03;1.55;;;23.20;1.00;;;;;;7388985;19;20372;-69
2023/07/22 09:36:53;;;;;;;4.50;1.73;;;23.60;1.00;;;;;;7390204;19;20042;-67
2023/07/22 09:39:23;;;;;;;2.20;1.60;;;23.80;1.00;;;;;;7389336;19;20010;-68
2023/07/22 09:41:56;;;;;;;2.00;1.45;;;23.80;1.00;;;;;;7389776;19;20018;-69
2023/07/22 09:44:30;;;;;;;2.72;1.70;;;23.00;1.00;;;;;;7389247;19;20038;-68
2023/07/22 09:47:00;;;;;;;2.22;1.60;;;23.10;1.00;;;;;;7385164;19;20039;-70
2023/07/22 09:49:30;;;;;;;6.03;1.25;;;23.40;1.00;;;;;;7388650;19;20046;-68
2023/07/22 09:52:00;;;;;;;3.15;1.50;;;23.00;1.00;;;;;;7386712;19;20092;-67
2023/07/22 09:54:32;;;;;;;2.38;1.65;;;22.50;1.00;;;;;;7388717;19;20022;-68
2023/07/22 09:57:07;;;;;;;2.50;1.60;;;22.90;1.00;;;;;;7389065;19;20042;-67
2023/07/22 09:59:37;;;;;;;2.63;1.40;;;22.70;1.00;;;;;;7389587;19;20037;-69
2023/07/22 10:02:08;;;;;;;2.42;1.40;;;23.20;1.00;;;;;;7397178;19;20074;-67
2023/07/22 10:04:39;;;;;;;2.67;1.30;;;23.80;1.00;;;;;;7396622;19;20019;-67
2023/07/22 10:07:11;;;;;;;2.97;1.60;;;23.90;1.00;;;;;;7395412;19;20027;-68
2023/07/22 10:09:41;;;;;;;1.98;1.40;;;23.70;1.00;;;;;;7395666;19;21782;-69
2023/07/22 10:12:15;;;;;;;2.85;1.40;;;22.90;1.00;;;;;;7394868;19;20094;-68
2023/07/22 10:14:46;;;;;;;2.77;1.47;;;24.20;1.00;;;;;;7395850;19;20051;-69
2023/07/22 10:17:16;;;;;;;2.35;1.40;;;23.70;1.00;;;;;;7395006;19;20018;-69
2023/07/22 10:19:47;;;;;;;2.85;1.33;;;23.90;1.00;;;;;;7395830;19;20029;-68
2023/07/22 10:22:17;;;;;;;2.95;1.30;;;23.60;1.00;;;;;;7396072;19;20022;-69
2023/07/22 10:24:48;;;;;;;2.13;1.73;;;23.60;1.00;;;;;;7395863;19;20023;-69
2023/07/22 10:27:21;;;;;;;1.50;1.10;;;24.00;1.00;;;;;;7395488;19;20481;-69
2023/07/22 10:29:51;;;;;;;2.65;1.27;;;25.10;1.00;;;;;;7394590;19;20518;-69
2023/07/22 10:32:21;;;;;;;1.92;1.30;;;25.80;1.00;;;;;;7394560;19;20018;-69
2023/07/22 10:34:51;;;;;;;1.20;0.88;;;26.00;1.00;;;;;;7393252;19;20659;-68
2023/07/22 10:37:24;;;;;;;2.20;1.30;;;24.30;1.00;;;;;;7395261;19;20643;-68
2023/07/22 10:39:54;;;;;;;1.27;1.15;;;23.70;1.00;;;;;;7394136;19;20081;-71
2023/07/22 10:42:29;;;;;;;1.58;1.20;;;24.80;1.00;;;;;;7395676;19;20018;-69
2023/07/22 10:45:03;;;;;;;2.20;1.17;;;25.00;1.00;;;;;;7393708;19;20023;-69
2023/07/22 10:47:34;;;;;;;;;;;24.20;1.00;;;;;;7395180;19;20010;-69
2023/07/22 10:50:11;;;;;;;1.63;1.20;;;23.70;1.00;;;;;;7393812;19;19915;-69
2023/07/22 10:52:44;;;;;;;1.80;1.30;;;24.50;1.00;;;;;;7394919;19;20023;-67
2023/07/22 10:55:19;;;;;;;1.45;1.10;;;25.00;1.00;;;;;;7391585;19;20039;-68
2023/07/22 10:57:56;;;;;;;1.65;1.00;;;24.90;1.00;;;;;;7392180;19;20018;-68
2023/07/22 11:00:32;;;;;;;1.42;1.10;;;24.60;1.00;;;;;;7392272;19;20372;-69
2023/07/22 11:03:16;;;;;;;1.77;1.15;;;25.40;1.00;;;;;;7395022;19;20027;-69
2023/07/22 11:05:55;;;;;;;3.70;1.40;;;26.50;1.00;;;;;;7393782;19;20014;-69
2023/07/22 11:08:39;;;;;;;1.38;1.10;;;26.50;1.00;;;;;;7394376;19;20537;-68
2023/07/22 11:11:09;;;;;;;1.83;1.33;;;26.50;1.00;;;;;;7390029;19;20065;-68
2023/07/22 11:13:43;;;;;;;2.03;1.23;;;26.90;1.00;;;;;;7390475;19;20015;-68
2023/07/22 11:16:14;;;;;;;;;;;26.80;1.00;;;;;;7394347;19;20498;-68
2023/07/22 11:18:44;;;;;;;3.22;1.15;;;26.60;1.00;;;;;;7394269;19;19925;-69
2023/07/22 11:21:15;;;;;;;1.40;1.17;;;26.80;1.00;;;;;;7392373;19;20510;-70
2023/07/22 11:23:45;;;;;;;3.08;1.30;;;26.90;1.00;;;;;;7392453;19;20475;-68
2023/07/22 11:26:15;;;;;;;1.52;1.30;;;26.20;1.00;;;;;;7393259;19;20027;-69
2023/07/22 11:28:49;;;;;;;2.10;1.20;;;25.60;1.00;;;;;;7392855;19;20031;-69
2023/07/22 11:31:18;;;;;;;;;;;25.80;1.00;;;;;;7392505;19;20035;-68
2023/07/22 11:33:48;;;;;;;2.13;1.27;;;26.00;1.00;;;;;;7391646;19;19918;-68
2023/07/22 11:36:19;;;;;;;2.22;1.25;;;25.40;1.00;;;;;;7392361;19;20011;-68
2023/07/22 11:38:48;;;;;;;1.90;1.10;;;25.60;1.00;;;;;;7391144;19;20621;-69
2023/07/22 11:41:19;;;;;;;1.67;1.20;;;25.50;1.00;;;;;;7389496;19;20028;-69
2023/07/22 11:43:52;;;;;;;1.92;1.35;;;25.50;1.00;;;;;;7393008;19;20032;-68
2023/07/22 11:46:22;;;;;;;2.03;1.40;;;25.50;1.00;;;;;;7392404;19;20045;-70
2023/07/22 11:48:53;;;;;;;2.22;1.27;;;26.10;1.00;;;;;;7392465;19;20092;-69
2023/07/22 11:51:27;;;;;;;1.88;1.48;;;26.40;1.00;;;;;;7391268;19;20014;-69
2023/07/22 11:53:59;;;;;;;2.20;1.35;;;24.90;1.00;;;;;;7390577;19;20759;-72
2023/07/22 11:56:30;;;;;;;4.15;1.30;;;24.90;1.00;;;;;;7390905;19;20022;-69
2023/07/22 11:59:04;;;;;;;1.65;1.30;;;25.20;1.00;;;;;;7392403;19;20541;-69
2023/07/22 12:01:35;;;;;;;2.00;1.20;;;25.50;1.00;;;;;;7390653;19;20676;-69
2023/07/22 12:04:13;;;;;;;1.98;1.38;;;26.00;1.00;;;;;;7392351;19;20007;-69
2023/07/22 12:06:43;;;;;;;5.15;2.10;;;26.30;1.00;;;;;;7392185;19;20482;-68
2023/07/22 12:09:13;;;;;;;1.75;1.40;;;26.20;1.00;;;;;;7391381;19;20082;-68
2023/07/22 12:11:43;;;;;;;3.08;1.52;;;25.10;1.00;;;;;;7389942;19;20103;-68
2023/07/22 12:14:16;;;;;;;2.13;1.30;;;25.70;1.00;;;;;;7387648;19;20094;-69
2023/07/22 12:16:46;;;;;;;2.60;1.33;;;26.00;1.00;;;;;;7390823;19;20479;-69
2023/07/22 12:19:16;;;;;;;3.80;1.48;;;26.40;1.00;;;;;;7391670;19;20029;-68
2023/07/22 12:21:46;;;;;;;1.33;1.23;;;26.20;1.00;;;;;;7392365;19;20018;-68
2023/07/22 12:24:17;;;;;;;2.28;1.50;;;27.00;1.00;;;;;;7387654;19;20018;-68
2023/07/22 12:26:47;;;;;;;3.33;1.75;;;27.20;1.00;;;;;;7390450;19;20770;-67
2023/07/22 12:29:19;;;;;;;2.30;1.20;;;26.90;1.00;;;;;;7391226;19;20678;-68
2023/07/22 12:31:49;;;;;;;3.40;1.58;;;27.00;1.00;;;;;;7391352;19;20022;-68
2023/07/22 12:34:19;;;;;;;5.90;1.67;;;25.70;1.00;;;;;;7393100;19;20022;-68
2023/07/22 12:36:49;;;;;;;2.08;1.40;;;25.60;1.00;;;;;;7391515;19;20015;-68
2023/07/22 12:39:19;;;;;;;2.80;1.58;;;25.50;1.00;;;;;;7391849;19;20094;-69
2023/07/22 12:41:49;;;;;;;4.65;1.75;;;25.70;1.00;;;;;;7391498;19;20015;-69
2023/07/22 12:44:21;;;;;;;2.13;1.65;;;25.80;1.00;;;;;;7392266;19;20007;-68
2023/07/22 12:46:53;;;;;;;2.95;1.73;;;27.00;1.00;;;;;;7388824;19;20006;-68
2023/07/22 12:49:23;;;;;;;1.35;1.25;;;26.30;1.00;;;;;;7385358;19;20021;-67
2023/07/22 12:51:53;;;;;;;2.22;1.50;;;25.90;1.00;;;;;;7387027;19;20805;-69
2023/07/22 12:54:23;;;;;;;1.35;1.20;;;26.40;1.00;;;;;;7385031;19;20041;-68
2023/07/22 12:56:53;;;;;;;1.90;1.42;;;25.40;1.00;;;;;;7387310;19;20086;-68
2023/07/22 12:59:26;;;;;;;1.98;1.40;;;25.40;1.00;;;;;;7385712;19;20446;-69
2023/07/22 13:01:57;;;;;;;1.88;1.50;;;25.70;1.00;;;;;;7385525;19;20010;-68
2023/07/22 13:04:27;;;;;;;1.77;1.50;;;25.70;1.00;;;;;;7390285;19;20015;-68
2023/07/22 13:07:00;;;;;;;2.25;1.70;;;25.20;1.00;;;;;;7389727;19;20028;-68
2023/07/22 13:09:30;;;;;;;2.40;1.40;;;24.90;1.00;;;;;;7391262;19;20100;-69
2023/07/22 13:12:00;;;;;;;3.25;1.80;;;25.00;1.00;;;;;;7391189;19;20010;-69
2023/07/22 13:14:33;;;;;;;2.83;1.77;;;25.80;1.00;;;;;;7389604;19;20090;-69
2023/07/22 13:17:03;;;;;;;2.25;1.48;;;26.00;1.00;;;;;;7391073;19;20039;-69
2023/07/22 13:19:32;;;;;;;4.43;1.92;;;25.70;1.00;;;;;;7390613;19;20039;-68